sensor_id;sensor_type;location;lat;lon;timestamp;P1;durP1;ratioP1;P2;durP2;ratioP2
10452;SDS011;5274;51.992;8.518;2023-06-24T00:00:55;53.97;;;50.47;;
10452;SDS011;5274;51.992;8.518;2023-06-24T00:03:21;50.38;;;47.13;;
10452;SDS011;5274;51.992;8.518;2023-06-24T00:05:47;50.63;;;47.13;;
10452;SDS011;5274;51.992;8.518;2023-06-24T00:08:14;51.50;;;48.00;;
10452;SDS011;5274;51.992;8.518;2023-06-24T00:10:40;50.88;;;47.58;;
10452;SDS011;5274;51.992;8.518;2023-06-24T00:13:06;51.13;;;47.83;;
10452;SDS011;5274;51.992;8.518;2023-06-24T00:15:32;51.90;;;48.58;;
10452;SDS011;5274;51.992;8.518;2023-06-24T00:17:59;51.30;;;47.90;;
10452;SDS011;5274;51.992;8.518;2023-06-24T00:20:30;52.92;;;49.53;;
10452;SDS011;5274;51.992;8.518;2023-06-24T00:22:56;55.38;;;51.88;;
10452;SDS011;5274;51.992;8.518;2023-06-24T00:25:22;52.47;;;49.03;;
10452;SDS011;5274;51.992;8.518;2023-06-24T00:27:48;54.58;;;51.05;;
10452;SDS011;5274;51.992;8.518;2023-06-24T00:30:14;51.38;;;47.97;;
10452;SDS011;5274;51.992;8.518;2023-06-24T00:32:40;52.92;;;49.33;;
10452;SDS011;5274;51.992;8.518;2023-06-24T00:35:06;54.10;;;50.60;;
10452;SDS011;5274;51.992;8.518;2023-06-24T00:37:32;53.95;;;50.38;;
10452;SDS011;5274;51.992;8.518;2023-06-24T00:39:58;42.90;;;40.28;;
10452;SDS011;5274;51.992;8.518;2023-06-24T00:42:24;41.58;;;39.47;;
10452;SDS011;5274;51.992;8.518;2023-06-24T00:44:50;42.13;;;39.67;;
10452;SDS011;5274;51.992;8.518;2023-06-24T00:47:16;41.78;;;39.58;;
10452;SDS011;5274;51.992;8.518;2023-06-24T00:49:43;39.90;;;37.72;;
10452;SDS011;5274;51.992;8.518;2023-06-24T00:52:10;41.85;;;39.13;;
10452;SDS011;5274;51.992;8.518;2023-06-24T00:54:40;39.70;;;37.60;;
10452;SDS011;5274;51.992;8.518;2023-06-24T00:57:06;41.55;;;39.10;;
10452;SDS011;5274;51.992;8.518;2023-06-24T00:59:32;37.72;;;35.63;;
10452;SDS011;5274;51.992;8.518;2023-06-24T01:01:58;38.33;;;36.20;;
10452;SDS011;5274;51.992;8.518;2023-06-24T01:04:27;39.45;;;37.03;;
10452;SDS011;5274;51.992;8.518;2023-06-24T01:06:53;40.38;;;37.75;;
10452;SDS011;5274;51.992;8.518;2023-06-24T01:09:20;39.33;;;37.30;;
10452;SDS011;5274;51.992;8.518;2023-06-24T01:11:46;38.63;;;36.38;;
10452;SDS011;5274;51.992;8.518;2023-06-24T01:14:13;38.25;;;36.35;;
10452;SDS011;5274;51.992;8.518;2023-06-24T01:16:44;38.35;;;36.45;;
10452;SDS011;5274;51.992;8.518;2023-06-24T01:19:22;39.80;;;37.65;;
10452;SDS011;5274;51.992;8.518;2023-06-24T01:21:58;41.72;;;39.22;;
10452;SDS011;5274;51.992;8.518;2023-06-24T01:24:41;50.92;;;47.67;;
10452;SDS011;5274;51.992;8.518;2023-06-24T01:32:37;45.45;;;42.83;;
10452;SDS011;5274;51.992;8.518;2023-06-24T01:35:07;46.92;;;44.33;;
10452;SDS011;5274;51.992;8.518;2023-06-24T01:37:41;47.17;;;44.47;;
10452;SDS011;5274;51.992;8.518;2023-06-24T01:40:11;47.05;;;44.40;;
10452;SDS011;5274;51.992;8.518;2023-06-24T01:42:42;47.13;;;44.53;;
10452;SDS011;5274;51.992;8.518;2023-06-24T01:45:15;47.40;;;44.63;;
10452;SDS011;5274;51.992;8.518;2023-06-24T01:47:43;46.70;;;44.10;;
10452;SDS011;5274;51.992;8.518;2023-06-24T01:50:10;47.72;;;44.90;;
10452;SDS011;5274;51.992;8.518;2023-06-24T01:52:37;48.38;;;45.58;;
10452;SDS011;5274;51.992;8.518;2023-06-24T01:55:04;46.13;;;43.63;;
10452;SDS011;5274;51.992;8.518;2023-06-24T01:57:32;46.42;;;43.90;;
10452;SDS011;5274;51.992;8.518;2023-06-24T01:59:58;47.40;;;44.80;;
10452;SDS011;5274;51.992;8.518;2023-06-24T02:02:25;49.17;;;46.38;;
10452;SDS011;5274;51.992;8.518;2023-06-24T02:04:52;48.15;;;45.20;;
10452;SDS011;5274;51.992;8.518;2023-06-24T02:07:20;46.60;;;43.80;;
10452;SDS011;5274;51.992;8.518;2023-06-24T02:09:46;45.00;;;42.50;;
10452;SDS011;5274;51.992;8.518;2023-06-24T02:12:12;44.47;;;41.78;;
10452;SDS011;5274;51.992;8.518;2023-06-24T02:14:38;45.47;;;42.65;;
10452;SDS011;5274;51.992;8.518;2023-06-24T02:17:08;45.35;;;42.80;;
10452;SDS011;5274;51.992;8.518;2023-06-24T02:19:34;45.97;;;43.38;;
10452;SDS011;5274;51.992;8.518;2023-06-24T02:22:01;45.92;;;43.08;;
10452;SDS011;5274;51.992;8.518;2023-06-24T02:24:27;45.80;;;43.10;;
10452;SDS011;5274;51.992;8.518;2023-06-24T02:26:54;46.00;;;43.25;;
10452;SDS011;5274;51.992;8.518;2023-06-24T02:29:22;46.20;;;43.60;;
10452;SDS011;5274;51.992;8.518;2023-06-24T02:31:48;49.17;;;46.42;;
10452;SDS011;5274;51.992;8.518;2023-06-24T02:34:15;50.00;;;47.03;;
10452;SDS011;5274;51.992;8.518;2023-06-24T02:36:41;48.30;;;45.30;;
10452;SDS011;5274;51.992;8.518;2023-06-24T02:39:07;47.08;;;44.58;;
10452;SDS011;5274;51.992;8.518;2023-06-24T02:41:33;46.97;;;44.38;;
10452;SDS011;5274;51.992;8.518;2023-06-24T02:43:59;45.72;;;43.15;;
10452;SDS011;5274;51.992;8.518;2023-06-24T02:46:25;49.30;;;46.50;;
10452;SDS011;5274;51.992;8.518;2023-06-24T02:48:54;46.58;;;43.78;;
10452;SDS011;5274;51.992;8.518;2023-06-24T02:51:20;48.63;;;45.83;;
10452;SDS011;5274;51.992;8.518;2023-06-24T02:53:46;47.00;;;44.10;;
10452;SDS011;5274;51.992;8.518;2023-06-24T02:56:13;47.17;;;44.40;;
10452;SDS011;5274;51.992;8.518;2023-06-24T02:58:39;46.30;;;43.70;;
10452;SDS011;5274;51.992;8.518;2023-06-24T03:01:05;44.13;;;41.70;;
10452;SDS011;5274;51.992;8.518;2023-06-24T03:03:32;46.42;;;43.53;;
10452;SDS011;5274;51.992;8.518;2023-06-24T03:05:58;48.17;;;45.50;;
10452;SDS011;5274;51.992;8.518;2023-06-24T03:08:24;48.15;;;44.97;;
10452;SDS011;5274;51.992;8.518;2023-06-24T03:10:51;48.10;;;45.08;;
10452;SDS011;5274;51.992;8.518;2023-06-24T03:13:19;49.00;;;45.90;;
10452;SDS011;5274;51.992;8.518;2023-06-24T03:15:45;47.35;;;44.72;;
10452;SDS011;5274;51.992;8.518;2023-06-24T03:18:11;48.08;;;45.38;;
10452;SDS011;5274;51.992;8.518;2023-06-24T03:20:37;46.88;;;44.28;;
10452;SDS011;5274;51.992;8.518;2023-06-24T03:23:06;55.17;;;51.05;;
10452;SDS011;5274;51.992;8.518;2023-06-24T03:25:33;56.47;;;52.47;;
10452;SDS011;5274;51.992;8.518;2023-06-24T03:27:59;56.13;;;51.70;;
10452;SDS011;5274;51.992;8.518;2023-06-24T03:30:25;56.55;;;52.55;;
10452;SDS011;5274;51.992;8.518;2023-06-24T03:32:51;56.47;;;52.08;;
10452;SDS011;5274;51.992;8.518;2023-06-24T03:35:17;56.05;;;51.85;;
10452;SDS011;5274;51.992;8.518;2023-06-24T03:37:43;56.10;;;52.10;;
10452;SDS011;5274;51.992;8.518;2023-06-24T03:40:09;57.60;;;53.20;;
10452;SDS011;5274;51.992;8.518;2023-06-24T03:42:36;57.03;;;52.63;;
10452;SDS011;5274;51.992;8.518;2023-06-24T03:45:02;57.22;;;53.08;;
10452;SDS011;5274;51.992;8.518;2023-06-24T03:47:28;59.10;;;54.70;;
10452;SDS011;5274;51.992;8.518;2023-06-24T03:49:54;54.28;;;50.55;;
10452;SDS011;5274;51.992;8.518;2023-06-24T03:52:20;53.63;;;50.03;;
10452;SDS011;5274;51.992;8.518;2023-06-24T03:54:46;54.63;;;50.83;;
10452;SDS011;5274;51.992;8.518;2023-06-24T03:57:12;54.90;;;51.00;;
10452;SDS011;5274;51.992;8.518;2023-06-24T03:59:38;53.78;;;50.17;;
10452;SDS011;5274;51.992;8.518;2023-06-24T04:02:04;54.75;;;50.80;;
10452;SDS011;5274;51.992;8.518;2023-06-24T04:04:34;55.67;;;51.65;;
10452;SDS011;5274;51.992;8.518;2023-06-24T04:07:00;54.92;;;51.13;;
10452;SDS011;5274;51.992;8.518;2023-06-24T04:09:26;56.25;;;52.15;;
10452;SDS011;5274;51.992;8.518;2023-06-24T04:11:51;54.78;;;50.97;;
10452;SDS011;5274;51.992;8.518;2023-06-24T04:14:17;55.22;;;51.05;;
10452;SDS011;5274;51.992;8.518;2023-06-24T04:16:43;55.03;;;51.13;;
10452;SDS011;5274;51.992;8.518;2023-06-24T04:19:09;56.47;;;52.60;;
10452;SDS011;5274;51.992;8.518;2023-06-24T04:21:36;54.85;;;50.88;;
10452;SDS011;5274;51.992;8.518;2023-06-24T04:24:02;54.83;;;51.00;;
10452;SDS011;5274;51.992;8.518;2023-06-24T04:26:28;54.67;;;50.75;;
10452;SDS011;5274;51.992;8.518;2023-06-24T04:28:54;54.30;;;50.45;;
10452;SDS011;5274;51.992;8.518;2023-06-24T04:31:20;54.30;;;50.28;;
10452;SDS011;5274;51.992;8.518;2023-06-24T04:33:46;54.88;;;51.03;;
10452;SDS011;5274;51.992;8.518;2023-06-24T04:36:12;55.50;;;51.22;;
10452;SDS011;5274;51.992;8.518;2023-06-24T04:38:37;53.80;;;50.03;;
10452;SDS011;5274;51.992;8.518;2023-06-24T04:41:03;54.88;;;50.97;;
10452;SDS011;5274;51.992;8.518;2023-06-24T04:43:29;55.63;;;51.72;;
10452;SDS011;5274;51.992;8.518;2023-06-24T04:45:55;54.50;;;50.80;;
10452;SDS011;5274;51.992;8.518;2023-06-24T04:48:24;54.78;;;50.85;;
10452;SDS011;5274;51.992;8.518;2023-06-24T04:50:50;57.92;;;53.92;;
10452;SDS011;5274;51.992;8.518;2023-06-24T04:53:18;57.55;;;53.45;;
10452;SDS011;5274;51.992;8.518;2023-06-24T04:55:44;55.15;;;51.42;;
10452;SDS011;5274;51.992;8.518;2023-06-24T04:58:10;57.20;;;53.05;;
10452;SDS011;5274;51.992;8.518;2023-06-24T05:00:36;55.95;;;51.90;;
10452;SDS011;5274;51.992;8.518;2023-06-24T05:03:02;49.33;;;45.83;;
10452;SDS011;5274;51.992;8.518;2023-06-24T05:05:28;49.10;;;45.70;;
10452;SDS011;5274;51.992;8.518;2023-06-24T05:07:53;50.15;;;46.42;;
10452;SDS011;5274;51.992;8.518;2023-06-24T05:10:19;51.17;;;47.67;;
10452;SDS011;5274;51.992;8.518;2023-06-24T05:12:45;52.25;;;48.22;;
10452;SDS011;5274;51.992;8.518;2023-06-24T05:15:11;53.00;;;49.22;;
10452;SDS011;5274;51.992;8.518;2023-06-24T05:17:37;52.30;;;48.58;;
10452;SDS011;5274;51.992;8.518;2023-06-24T05:20:03;55.67;;;51.67;;
10452;SDS011;5274;51.992;8.518;2023-06-24T05:22:29;52.75;;;49.00;;
10452;SDS011;5274;51.992;8.518;2023-06-24T05:24:55;55.13;;;51.30;;
10452;SDS011;5274;51.992;8.518;2023-06-24T05:27:21;47.72;;;44.42;;
10452;SDS011;5274;51.992;8.518;2023-06-24T05:29:47;50.63;;;47.22;;
10452;SDS011;5274;51.992;8.518;2023-06-24T05:32:13;54.05;;;49.80;;
10452;SDS011;5274;51.992;8.518;2023-06-24T05:34:39;53.95;;;50.28;;
10452;SDS011;5274;51.992;8.518;2023-06-24T05:37:05;57.38;;;53.17;;
10452;SDS011;5274;51.992;8.518;2023-06-24T05:39:31;56.92;;;52.72;;
10452;SDS011;5274;51.992;8.518;2023-06-24T05:41:57;54.92;;;51.13;;
10452;SDS011;5274;51.992;8.518;2023-06-24T05:44:23;56.90;;;52.70;;
10452;SDS011;5274;51.992;8.518;2023-06-24T05:46:49;58.50;;;53.92;;
10452;SDS011;5274;51.992;8.518;2023-06-24T05:49:15;57.30;;;53.17;;
10452;SDS011;5274;51.992;8.518;2023-06-24T05:51:41;57.92;;;53.70;;
10452;SDS011;5274;51.992;8.518;2023-06-24T05:54:07;57.10;;;52.90;;
10452;SDS011;5274;51.992;8.518;2023-06-24T05:56:33;57.38;;;53.03;;
10452;SDS011;5274;51.992;8.518;2023-06-24T05:58:59;59.58;;;55.15;;
10452;SDS011;5274;51.992;8.518;2023-06-24T06:01:25;58.00;;;53.85;;
10452;SDS011;5274;51.992;8.518;2023-06-24T06:03:51;60.00;;;55.50;;
10452;SDS011;5274;51.992;8.518;2023-06-24T06:06:17;59.58;;;55.25;;
10452;SDS011;5274;51.992;8.518;2023-06-24T06:08:43;59.38;;;54.88;;
10452;SDS011;5274;51.992;8.518;2023-06-24T06:11:09;58.55;;;54.25;;
10452;SDS011;5274;51.992;8.518;2023-06-24T06:13:35;57.83;;;53.53;;
10452;SDS011;5274;51.992;8.518;2023-06-24T06:16:01;54.70;;;50.85;;
10452;SDS011;5274;51.992;8.518;2023-06-24T06:18:26;57.92;;;53.78;;
10452;SDS011;5274;51.992;8.518;2023-06-24T06:20:52;60.70;;;56.15;;
10452;SDS011;5274;51.992;8.518;2023-06-24T06:23:18;61.58;;;56.88;;
10452;SDS011;5274;51.992;8.518;2023-06-24T06:25:44;59.85;;;55.45;;
10452;SDS011;5274;51.992;8.518;2023-06-24T06:28:10;57.15;;;52.85;;
10452;SDS011;5274;51.992;8.518;2023-06-24T06:30:36;55.42;;;51.33;;
10452;SDS011;5274;51.992;8.518;2023-06-24T06:33:02;53.90;;;50.00;;
10452;SDS011;5274;51.992;8.518;2023-06-24T06:35:28;57.05;;;52.70;;
10452;SDS011;5274;51.992;8.518;2023-06-24T06:37:54;55.92;;;51.78;;
10452;SDS011;5274;51.992;8.518;2023-06-24T06:40:20;55.72;;;51.63;;
10452;SDS011;5274;51.992;8.518;2023-06-24T06:42:46;54.45;;;50.42;;
10452;SDS011;5274;51.992;8.518;2023-06-24T06:45:12;54.60;;;50.60;;
10452;SDS011;5274;51.992;8.518;2023-06-24T06:47:38;55.83;;;51.60;;
10452;SDS011;5274;51.992;8.518;2023-06-24T06:50:04;54.85;;;50.97;;
10452;SDS011;5274;51.992;8.518;2023-06-24T06:52:31;53.00;;;49.20;;
10452;SDS011;5274;51.992;8.518;2023-06-24T06:54:57;50.33;;;46.75;;
10452;SDS011;5274;51.992;8.518;2023-06-24T06:57:23;53.28;;;49.40;;
10452;SDS011;5274;51.992;8.518;2023-06-24T06:59:49;59.58;;;55.28;;
10452;SDS011;5274;51.992;8.518;2023-06-24T07:02:16;62.80;;;58.13;;
10452;SDS011;5274;51.992;8.518;2023-06-24T07:04:42;61.42;;;56.80;;
10452;SDS011;5274;51.992;8.518;2023-06-24T07:07:08;61.85;;;57.35;;
10452;SDS011;5274;51.992;8.518;2023-06-24T07:09:33;62.75;;;57.92;;
10452;SDS011;5274;51.992;8.518;2023-06-24T07:11:59;61.90;;;57.30;;
10452;SDS011;5274;51.992;8.518;2023-06-24T07:14:25;61.03;;;56.38;;
10452;SDS011;5274;51.992;8.518;2023-06-24T07:16:51;58.90;;;54.70;;
10452;SDS011;5274;51.992;8.518;2023-06-24T07:19:17;56.78;;;52.80;;
10452;SDS011;5274;51.992;8.518;2023-06-24T07:21:43;58.35;;;54.05;;
10452;SDS011;5274;51.992;8.518;2023-06-24T07:24:09;59.78;;;55.40;;
10452;SDS011;5274;51.992;8.518;2023-06-24T07:26:35;59.30;;;54.83;;
10452;SDS011;5274;51.992;8.518;2023-06-24T07:29:06;59.42;;;55.13;;
10452;SDS011;5274;51.992;8.518;2023-06-24T07:31:32;60.13;;;55.83;;
10452;SDS011;5274;51.992;8.518;2023-06-24T07:33:58;64.07;;;59.03;;
10452;SDS011;5274;51.992;8.518;2023-06-24T07:36:24;60.30;;;55.80;;
10452;SDS011;5274;51.992;8.518;2023-06-24T07:38:50;60.97;;;56.40;;
10452;SDS011;5274;51.992;8.518;2023-06-24T07:41:15;60.50;;;55.80;;
10452;SDS011;5274;51.992;8.518;2023-06-24T07:43:41;61.38;;;57.08;;
10452;SDS011;5274;51.992;8.518;2023-06-24T07:46:07;60.20;;;55.80;;
10452;SDS011;5274;51.992;8.518;2023-06-24T07:48:33;59.45;;;54.95;;
10452;SDS011;5274;51.992;8.518;2023-06-24T07:50:59;58.40;;;54.00;;
10452;SDS011;5274;51.992;8.518;2023-06-24T07:53:25;57.25;;;52.95;;
10452;SDS011;5274;51.992;8.518;2023-06-24T07:55:51;56.17;;;52.08;;
10452;SDS011;5274;51.992;8.518;2023-06-24T07:58:17;56.60;;;52.60;;
10452;SDS011;5274;51.992;8.518;2023-06-24T08:00:44;52.13;;;48.53;;
10452;SDS011;5274;51.992;8.518;2023-06-24T08:03:10;55.05;;;51.28;;
10452;SDS011;5274;51.992;8.518;2023-06-24T08:05:36;57.28;;;52.90;;
10452;SDS011;5274;51.992;8.518;2023-06-24T08:08:03;56.22;;;52.20;;
10452;SDS011;5274;51.992;8.518;2023-06-24T08:10:29;57.70;;;53.35;;
10452;SDS011;5274;51.992;8.518;2023-06-24T08:12:55;58.25;;;54.15;;
10452;SDS011;5274;51.992;8.518;2023-06-24T08:15:21;58.30;;;53.97;;
10452;SDS011;5274;51.992;8.518;2023-06-24T08:17:51;59.88;;;55.65;;
10452;SDS011;5274;51.992;8.518;2023-06-24T08:20:17;53.90;;;50.40;;
10452;SDS011;5274;51.992;8.518;2023-06-24T08:22:43;57.85;;;53.85;;
10452;SDS011;5274;51.992;8.518;2023-06-24T08:25:09;57.17;;;53.28;;
10452;SDS011;5274;51.992;8.518;2023-06-24T08:27:35;58.25;;;54.25;;
10452;SDS011;5274;51.992;8.518;2023-06-24T08:30:02;57.25;;;53.00;;
10452;SDS011;5274;51.992;8.518;2023-06-24T08:32:27;56.78;;;52.88;;
10452;SDS011;5274;51.992;8.518;2023-06-24T08:34:53;56.90;;;52.80;;
10452;SDS011;5274;51.992;8.518;2023-06-24T08:37:19;54.67;;;50.78;;
10452;SDS011;5274;51.992;8.518;2023-06-24T08:39:45;57.03;;;52.85;;
10452;SDS011;5274;51.992;8.518;2023-06-24T08:42:12;56.97;;;52.83;;
10452;SDS011;5274;51.992;8.518;2023-06-24T08:44:38;53.72;;;50.05;;
10452;SDS011;5274;51.992;8.518;2023-06-24T08:47:04;57.20;;;53.30;;
10452;SDS011;5274;51.992;8.518;2023-06-24T08:49:30;56.60;;;52.60;;
10452;SDS011;5274;51.992;8.518;2023-06-24T08:54:25;58.65;;;54.65;;
10452;SDS011;5274;51.992;8.518;2023-06-24T08:56:52;57.88;;;53.97;;
10452;SDS011;5274;51.992;8.518;2023-06-24T08:59:18;59.33;;;55.22;;
10452;SDS011;5274;51.992;8.518;2023-06-24T09:01:48;58.83;;;54.70;;
10452;SDS011;5274;51.992;8.518;2023-06-24T09:04:15;57.42;;;53.63;;
10452;SDS011;5274;51.992;8.518;2023-06-24T09:06:41;58.35;;;54.47;;
10452;SDS011;5274;51.992;8.518;2023-06-24T09:09:19;57.67;;;53.78;;
10452;SDS011;5274;51.992;8.518;2023-06-24T09:11:55;56.80;;;52.90;;
10452;SDS011;5274;51.992;8.518;2023-06-24T09:14:21;58.42;;;54.30;;
10452;SDS011;5274;51.992;8.518;2023-06-24T09:17:00;57.60;;;53.78;;
10452;SDS011;5274;51.992;8.518;2023-06-24T09:19:27;57.75;;;53.85;;
10452;SDS011;5274;51.992;8.518;2023-06-24T09:22:07;57.88;;;53.75;;
10452;SDS011;5274;51.992;8.518;2023-06-24T09:24:33;57.65;;;53.95;;
10452;SDS011;5274;51.992;8.518;2023-06-24T09:27:00;61.05;;;56.72;;
10452;SDS011;5274;51.992;8.518;2023-06-24T09:29:26;59.63;;;55.40;;
10452;SDS011;5274;51.992;8.518;2023-06-24T09:31:52;60.72;;;56.63;;
10452;SDS011;5274;51.992;8.518;2023-06-24T09:34:20;61.38;;;57.28;;
10452;SDS011;5274;51.992;8.518;2023-06-24T09:36:51;59.15;;;55.03;;
10452;SDS011;5274;51.992;8.518;2023-06-24T09:39:17;57.45;;;53.33;;
10452;SDS011;5274;51.992;8.518;2023-06-24T09:41:43;58.70;;;54.58;;
10452;SDS011;5274;51.992;8.518;2023-06-24T09:44:10;58.50;;;54.45;;
10452;SDS011;5274;51.992;8.518;2023-06-24T09:46:37;57.83;;;53.83;;
10452;SDS011;5274;51.992;8.518;2023-06-24T09:49:04;56.47;;;52.45;;
10452;SDS011;5274;51.992;8.518;2023-06-24T09:51:31;57.35;;;53.45;;
10452;SDS011;5274;51.992;8.518;2023-06-24T09:53:57;57.05;;;53.17;;
10452;SDS011;5274;51.992;8.518;2023-06-24T09:56:24;59.15;;;54.95;;
10452;SDS011;5274;51.992;8.518;2023-06-24T09:58:49;62.00;;;57.60;;
10452;SDS011;5274;51.992;8.518;2023-06-24T10:01:15;60.88;;;56.30;;
10452;SDS011;5274;51.992;8.518;2023-06-24T10:03:42;61.05;;;56.72;;
10452;SDS011;5274;51.992;8.518;2023-06-24T10:06:08;62.05;;;57.65;;
10452;SDS011;5274;51.992;8.518;2023-06-24T10:08:34;59.67;;;55.42;;
10452;SDS011;5274;51.992;8.518;2023-06-24T10:11:00;58.13;;;53.97;;
10452;SDS011;5274;51.992;8.518;2023-06-24T10:13:27;58.25;;;54.13;;
10452;SDS011;5274;51.992;8.518;2023-06-24T10:15:54;50.10;;;46.38;;
10452;SDS011;5274;51.992;8.518;2023-06-24T10:18:53;48.25;;;45.25;;
10452;SDS011;5274;51.992;8.518;2023-06-24T10:21:14;54.25;;;50.65;;
10452;SDS011;5274;51.992;8.518;2023-06-24T10:23:53;55.03;;;50.88;;
10452;SDS011;5274;51.992;8.518;2023-06-24T10:26:29;57.08;;;52.97;;
10452;SDS011;5274;51.992;8.518;2023-06-24T10:37:08;55.95;;;52.05;;
10452;SDS011;5274;51.992;8.518;2023-06-24T10:44:47;57.00;;;53.17;;
10452;SDS011;5274;51.992;8.518;2023-06-24T10:47:14;55.83;;;51.92;;
10452;SDS011;5274;51.992;8.518;2023-06-24T10:49:40;54.80;;;50.90;;
10452;SDS011;5274;51.992;8.518;2023-06-24T10:52:12;55.58;;;51.70;;
10452;SDS011;5274;51.992;8.518;2023-06-24T10:54:39;49.58;;;46.42;;
10452;SDS011;5274;51.992;8.518;2023-06-24T10:57:05;57.20;;;52.90;;
10452;SDS011;5274;51.992;8.518;2023-06-24T10:59:35;58.50;;;54.50;;
10452;SDS011;5274;51.992;8.518;2023-06-24T11:02:01;58.58;;;54.47;;
10452;SDS011;5274;51.992;8.518;2023-06-24T11:04:27;57.85;;;53.95;;
10452;SDS011;5274;51.992;8.518;2023-06-24T11:06:59;56.47;;;52.67;;
10452;SDS011;5274;51.992;8.518;2023-06-24T11:09:25;56.22;;;52.22;;
10452;SDS011;5274;51.992;8.518;2023-06-24T11:11:52;54.88;;;51.03;;
10452;SDS011;5274;51.992;8.518;2023-06-24T11:14:19;55.17;;;51.47;;
10452;SDS011;5274;51.992;8.518;2023-06-24T11:16:45;58.72;;;54.58;;
10452;SDS011;5274;51.992;8.518;2023-06-24T11:19:11;58.65;;;53.75;;
10452;SDS011;5274;51.992;8.518;2023-06-24T11:21:37;57.25;;;52.95;;
10452;SDS011;5274;51.992;8.518;2023-06-24T11:24:03;50.80;;;47.65;;
10452;SDS011;5274;51.992;8.518;2023-06-24T11:26:29;57.83;;;53.92;;
10452;SDS011;5274;51.992;8.518;2023-06-24T11:28:55;57.20;;;53.20;;
10452;SDS011;5274;51.992;8.518;2023-06-24T11:31:27;56.08;;;52.38;;
10452;SDS011;5274;51.992;8.518;2023-06-24T11:33:53;57.00;;;53.00;;
10452;SDS011;5274;51.992;8.518;2023-06-24T11:36:19;58.03;;;53.72;;
10452;SDS011;5274;51.992;8.518;2023-06-24T11:38:46;57.30;;;53.40;;
10452;SDS011;5274;51.992;8.518;2023-06-24T11:41:12;58.25;;;54.15;;
10452;SDS011;5274;51.992;8.518;2023-06-24T11:43:43;58.28;;;54.28;;
10452;SDS011;5274;51.992;8.518;2023-06-24T11:46:09;58.58;;;54.58;;
10452;SDS011;5274;51.992;8.518;2023-06-24T11:48:41;59.75;;;55.70;;
10452;SDS011;5274;51.992;8.518;2023-06-24T11:51:13;59.17;;;54.83;;
10452;SDS011;5274;51.992;8.518;2023-06-24T11:53:42;57.13;;;53.33;;
10452;SDS011;5274;51.992;8.518;2023-06-24T11:56:08;52.58;;;49.20;;
10452;SDS011;5274;51.992;8.518;2023-06-24T11:58:34;58.08;;;54.22;;
10452;SDS011;5274;51.992;8.518;2023-06-24T12:01:00;59.03;;;54.78;;
10452;SDS011;5274;51.992;8.518;2023-06-24T12:03:27;57.05;;;53.05;;
10452;SDS011;5274;51.992;8.518;2023-06-24T12:05:53;57.90;;;54.15;;
10452;SDS011;5274;51.992;8.518;2023-06-24T12:08:19;58.00;;;54.00;;
10452;SDS011;5274;51.992;8.518;2023-06-24T12:10:47;58.42;;;54.45;;
10452;SDS011;5274;51.992;8.518;2023-06-24T12:13:13;58.00;;;54.20;;
10452;SDS011;5274;51.992;8.518;2023-06-24T12:15:40;58.97;;;54.67;;
10452;SDS011;5274;51.992;8.518;2023-06-24T12:18:06;58.38;;;54.58;;
10452;SDS011;5274;51.992;8.518;2023-06-24T12:20:32;57.33;;;53.47;;
10452;SDS011;5274;51.992;8.518;2023-06-24T12:22:59;59.35;;;55.35;;
10452;SDS011;5274;51.992;8.518;2023-06-24T12:25:25;60.35;;;56.22;;
10452;SDS011;5274;51.992;8.518;2023-06-24T12:27:51;57.10;;;53.22;;
10452;SDS011;5274;51.992;8.518;2023-06-24T12:30:17;60.55;;;56.30;;
10452;SDS011;5274;51.992;8.518;2023-06-24T12:32:43;59.05;;;55.05;;
10452;SDS011;5274;51.992;8.518;2023-06-24T12:35:09;59.80;;;55.65;;
10452;SDS011;5274;51.992;8.518;2023-06-24T12:37:36;58.13;;;54.08;;
10452;SDS011;5274;51.992;8.518;2023-06-24T12:40:05;59.17;;;55.08;;
10452;SDS011;5274;51.992;8.518;2023-06-24T12:42:31;59.28;;;54.97;;
10452;SDS011;5274;51.992;8.518;2023-06-24T12:44:57;54.85;;;51.15;;
10452;SDS011;5274;51.992;8.518;2023-06-24T12:47:23;59.28;;;55.00;;
10452;SDS011;5274;51.992;8.518;2023-06-24T12:49:49;57.42;;;53.42;;
10452;SDS011;5274;51.992;8.518;2023-06-24T12:52:15;56.72;;;52.92;;
10452;SDS011;5274;51.992;8.518;2023-06-24T12:54:41;56.92;;;53.03;;
10452;SDS011;5274;51.992;8.518;2023-06-24T12:57:07;58.35;;;54.05;;
10452;SDS011;5274;51.992;8.518;2023-06-24T12:59:33;57.50;;;53.33;;
10452;SDS011;5274;51.992;8.518;2023-06-24T13:01:59;58.22;;;54.13;;
10452;SDS011;5274;51.992;8.518;2023-06-24T13:04:25;59.22;;;55.03;;
10452;SDS011;5274;51.992;8.518;2023-06-24T13:06:52;56.67;;;52.60;;
10452;SDS011;5274;51.992;8.518;2023-06-24T13:09:18;56.88;;;52.88;;
10452;SDS011;5274;51.992;8.518;2023-06-24T13:11:43;56.25;;;52.45;;
10452;SDS011;5274;51.992;8.518;2023-06-24T13:14:09;58.10;;;54.00;;
10452;SDS011;5274;51.992;8.518;2023-06-24T13:16:36;59.65;;;55.25;;
10452;SDS011;5274;51.992;8.518;2023-06-24T13:19:02;56.70;;;52.67;;
10452;SDS011;5274;51.992;8.518;2023-06-24T13:21:28;56.30;;;52.30;;
10452;SDS011;5274;51.992;8.518;2023-06-24T13:23:54;57.13;;;53.13;;
10452;SDS011;5274;51.992;8.518;2023-06-24T13:26:20;52.03;;;48.38;;
10452;SDS011;5274;51.992;8.518;2023-06-24T13:28:46;57.28;;;53.08;;
10452;SDS011;5274;51.992;8.518;2023-06-24T13:31:13;55.55;;;51.65;;
10452;SDS011;5274;51.992;8.518;2023-06-24T13:33:39;54.03;;;50.33;;
10452;SDS011;5274;51.992;8.518;2023-06-24T13:36:05;56.17;;;52.08;;
10452;SDS011;5274;51.992;8.518;2023-06-24T13:38:32;55.50;;;51.95;;
10452;SDS011;5274;51.992;8.518;2023-06-24T13:40:58;57.60;;;53.70;;
10452;SDS011;5274;51.992;8.518;2023-06-24T13:43:24;58.28;;;54.03;;
10452;SDS011;5274;51.992;8.518;2023-06-24T13:45:51;55.47;;;51.67;;
10452;SDS011;5274;51.992;8.518;2023-06-24T13:48:17;57.97;;;54.00;;
10452;SDS011;5274;51.992;8.518;2023-06-24T13:50:43;55.85;;;52.05;;
10452;SDS011;5274;51.992;8.518;2023-06-24T13:53:09;59.42;;;55.30;;
10452;SDS011;5274;51.992;8.518;2023-06-24T13:55:35;51.92;;;48.42;;
10452;SDS011;5274;51.992;8.518;2023-06-24T13:58:01;53.25;;;49.65;;
10452;SDS011;5274;51.992;8.518;2023-06-24T14:00:27;56.67;;;52.88;;
10452;SDS011;5274;51.992;8.518;2023-06-24T14:02:53;57.55;;;53.65;;
10452;SDS011;5274;51.992;8.518;2023-06-24T14:05:20;59.30;;;55.08;;
10452;SDS011;5274;51.992;8.518;2023-06-24T14:07:46;59.83;;;55.72;;
10452;SDS011;5274;51.992;8.518;2023-06-24T14:10:12;60.38;;;56.28;;
10452;SDS011;5274;51.992;8.518;2023-06-24T14:12:38;60.30;;;56.25;;
10452;SDS011;5274;51.992;8.518;2023-06-24T14:15:07;61.53;;;57.42;;
10452;SDS011;5274;51.992;8.518;2023-06-24T14:17:33;61.53;;;57.42;;
10452;SDS011;5274;51.992;8.518;2023-06-24T14:19:59;61.22;;;57.03;;
10452;SDS011;5274;51.992;8.518;2023-06-24T14:22:25;61.25;;;57.15;;
10452;SDS011;5274;51.992;8.518;2023-06-24T14:24:51;56.92;;;53.33;;
10452;SDS011;5274;51.992;8.518;2023-06-24T14:27:17;60.83;;;56.65;;
10452;SDS011;5274;51.992;8.518;2023-06-24T14:29:43;60.75;;;56.65;;
10452;SDS011;5274;51.992;8.518;2023-06-24T14:32:09;57.35;;;53.35;;
10452;SDS011;5274;51.992;8.518;2023-06-24T14:34:35;61.22;;;57.13;;
10452;SDS011;5274;51.992;8.518;2023-06-24T14:37:00;60.00;;;55.83;;
10452;SDS011;5274;51.992;8.518;2023-06-24T14:39:26;60.60;;;56.33;;
10452;SDS011;5274;51.992;8.518;2023-06-24T14:41:53;60.33;;;55.97;;
10452;SDS011;5274;51.992;8.518;2023-06-24T14:44:19;59.03;;;55.08;;
10452;SDS011;5274;51.992;8.518;2023-06-24T14:46:45;59.03;;;54.92;;
10452;SDS011;5274;51.992;8.518;2023-06-24T14:49:11;61.05;;;56.75;;
10452;SDS011;5274;51.992;8.518;2023-06-24T14:51:37;59.38;;;55.38;;